createdAt,value
2019-03-06T00:02:12.064Z,6.90
2019-03-06T00:04:41.664Z,7.50
2019-03-06T00:07:11.398Z,6.63
2019-03-06T00:09:41.478Z,6.63
2019-03-06T00:12:11.313Z,6.17
2019-03-06T00:14:41.343Z,6.33
2019-03-06T00:17:11.312Z,6.17
2019-03-06T00:19:41.044Z,6.40
2019-03-06T00:22:10.966Z,5.60
2019-03-06T00:24:40.662Z,5.07
2019-03-06T00:27:10.362Z,5.77
2019-03-06T00:29:40.005Z,4.87
2019-03-06T00:32:09.748Z,4.93
2019-03-06T00:34:39.390Z,5.83
2019-03-06T00:37:09.113Z,5.93
2019-03-06T00:39:45.535Z,6.10
2019-03-06T00:42:15.219Z,5.90
2019-03-06T00:44:44.865Z,5.83
2019-03-06T00:47:14.475Z,5.80
2019-03-06T00:49:44.065Z,5.60
2019-03-06T00:52:13.788Z,5.30
2019-03-06T00:54:43.445Z,5.70
2019-03-06T00:57:13.051Z,4.70
2019-03-06T00:59:42.763Z,4.70
2019-03-06T01:02:12.411Z,4.57
2019-03-06T01:04:42.075Z,4.10
2019-03-06T01:07:11.888Z,4.40
2019-03-06T01:09:41.501Z,3.77
2019-03-06T01:12:11.377Z,3.97
2019-03-06T01:14:41.019Z,4.10
2019-03-06T01:17:10.627Z,3.93
2019-03-06T01:19:40.288Z,3.97
2019-03-06T01:22:09.907Z,4.07
2019-03-06T01:24:39.633Z,4.37
2019-03-06T01:27:09.247Z,4.20
2019-03-06T01:29:38.970Z,4.03
2019-03-06T01:32:08.766Z,4.60
2019-03-06T01:35:04.556Z,4.90
2019-03-06T01:37:59.458Z,4.93
2019-03-06T01:40:50.787Z,10.07
2019-03-06T01:43:26.068Z,6.93
2019-03-06T01:45:56.144Z,5.50
2019-03-06T01:48:25.973Z,5.20
2019-03-06T01:50:55.638Z,4.90
2019-03-06T01:53:25.266Z,19.20
2019-03-06T01:55:55.027Z,45.87
2019-03-06T01:58:24.898Z,42.80
2019-03-06T02:00:55.222Z,28.37
2019-03-06T02:03:25.015Z,20.53
2019-03-06T02:05:54.909Z,19.60
2019-03-06T02:08:24.634Z,21.63
2019-03-06T02:10:54.370Z,32.13
2019-03-06T02:13:24.729Z,33.33
2019-03-06T02:15:54.368Z,31.53
2019-03-06T02:18:23.985Z,22.57
2019-03-06T02:20:53.609Z,14.97
2019-03-06T02:23:23.208Z,11.33
2019-03-06T02:25:52.960Z,9.80
2019-03-06T02:28:22.551Z,7.20
2019-03-06T02:30:52.270Z,7.27
2019-03-06T02:33:22.184Z,5.60
2019-03-06T02:35:51.885Z,4.33
2019-03-06T02:38:21.548Z,4.80
2019-03-06T02:40:51.180Z,3.83
2019-03-06T02:43:20.844Z,3.97
2019-03-06T02:45:50.694Z,3.53
2019-03-06T02:48:20.370Z,3.57
2019-03-06T02:50:50.117Z,3.20
2019-03-06T02:53:19.754Z,3.00
2019-03-06T02:55:49.387Z,3.67
2019-03-06T02:58:29.188Z,3.17
2019-03-06T03:01:29.737Z,3.53
2019-03-06T03:04:13.781Z,3.03
2019-03-06T03:06:46.745Z,11.67
2019-03-06T03:09:20.538Z,2.90
2019-03-06T03:11:50.188Z,3.17
2019-03-06T03:14:19.793Z,3.37
2019-03-06T03:16:49.389Z,3.00
2019-03-06T03:19:19.092Z,2.57
2019-03-06T03:21:48.753Z,3.27
2019-03-06T03:24:18.428Z,3.10
2019-03-06T03:26:48.134Z,2.63
2019-03-06T03:29:17.733Z,2.90
2019-03-06T03:31:47.504Z,3.13
2019-03-06T03:34:17.139Z,3.67
2019-03-06T03:36:46.874Z,106.03
2019-03-06T03:39:16.495Z,5.03
2019-03-06T03:41:46.152Z,3.63
2019-03-06T03:44:15.766Z,3.03
2019-03-06T03:46:45.363Z,3.00
2019-03-06T03:49:14.982Z,2.80
2019-03-06T03:51:44.599Z,4.70
2019-03-06T03:54:14.342Z,3.80
2019-03-06T03:56:43.950Z,3.47
2019-03-06T03:59:13.644Z,3.17
2019-03-06T04:01:43.668Z,3.20
2019-03-06T04:04:13.445Z,3.80
2019-03-06T04:06:41.785Z,3.60
2019-03-06T04:09:11.410Z,3.07
2019-03-06T04:11:41.021Z,3.50
2019-03-06T04:14:10.643Z,3.60
2019-03-06T04:16:40.330Z,2.80
2019-03-06T04:19:09.924Z,2.80
2019-03-06T04:21:39.540Z,3.07
2019-03-06T04:24:09.479Z,3.17
2019-03-06T04:26:39.127Z,3.73
2019-03-06T04:29:08.734Z,3.87
2019-03-06T04:31:38.427Z,3.57
2019-03-06T04:34:08.055Z,3.67
2019-03-06T04:36:37.763Z,3.37
2019-03-06T04:39:07.811Z,3.30
2019-03-06T04:41:37.418Z,3.80
2019-03-06T04:44:06.980Z,3.70
2019-03-06T04:46:36.632Z,4.90
2019-03-06T04:49:06.237Z,6.10
2019-03-06T04:51:36.194Z,6.50
2019-03-06T04:54:05.824Z,7.17
2019-03-06T04:56:35.464Z,6.73
2019-03-06T04:59:05.191Z,7.27
2019-03-06T05:01:34.881Z,7.10
2019-03-06T05:04:04.774Z,7.53
2019-03-06T05:06:34.534Z,6.80
2019-03-06T05:09:04.808Z,6.77
2019-03-06T05:11:34.427Z,6.97
2019-03-06T05:14:04.027Z,7.90
2019-03-06T05:16:57.380Z,7.43
2019-03-06T05:19:27.114Z,7.10
2019-03-06T05:21:56.755Z,15.63
2019-03-06T05:24:26.333Z,19.50
2019-03-06T05:26:56.033Z,15.20
2019-03-06T05:29:25.866Z,13.93
2019-03-06T05:32:29.122Z,6.83
2019-03-06T05:35:00.344Z,9.40
2019-03-06T05:38:12.868Z,9.50
2019-03-06T05:40:42.697Z,8.93
2019-03-06T05:43:12.496Z,6.53
2019-03-06T05:45:43.342Z,5.07
2019-03-06T05:48:13.075Z,5.13
2019-03-06T05:50:42.761Z,5.03
2019-03-06T05:53:12.449Z,5.03
2019-03-06T05:55:42.059Z,6.30
2019-03-06T05:58:11.851Z,4.90
2019-03-06T06:00:47.461Z,5.27
2019-03-06T06:03:18.453Z,5.43
2019-03-06T06:05:48.390Z,7.60
2019-03-06T06:08:19.847Z,8.53
2019-03-06T06:10:52.341Z,8.83
2019-03-06T06:13:24.265Z,8.93
2019-03-06T06:15:54.649Z,9.03
2019-03-06T06:19:11.286Z,8.77
2019-03-06T06:21:59.406Z,8.73
2019-03-06T06:24:31.546Z,8.50
2019-03-06T06:27:02.720Z,10.23
2019-03-06T06:29:34.928Z,9.77
2019-03-06T06:32:05.359Z,9.63
2019-03-06T06:34:37.262Z,9.13
2019-03-06T06:37:09.662Z,10.07
2019-03-06T06:39:39.890Z,10.03
2019-03-06T06:42:09.650Z,9.60
2019-03-06T06:44:39.316Z,9.13
2019-03-06T06:47:08.930Z,9.70
2019-03-06T06:49:38.765Z,29.17
2019-03-06T06:52:42.069Z,66.37
2019-03-06T06:55:32.214Z,111.17
2019-03-06T06:58:37.556Z,66.47
2019-03-06T07:01:59.150Z,48.30
2019-03-06T07:05:11.196Z,38.40
2019-03-06T07:08:05.772Z,43.30
2019-03-06T07:11:09.443Z,41.97
2019-03-06T07:14:16.361Z,42.63
2019-03-06T07:16:59.082Z,44.10
2019-03-06T07:19:47.694Z,46.93
2019-03-06T07:22:54.618Z,55.17
2019-03-06T07:25:38.837Z,53.07
2019-03-06T07:28:19.187Z,47.67
2019-03-06T07:31:06.475Z,44.03
2019-03-06T07:33:53.477Z,32.57
2019-03-06T07:36:41.948Z,20.60
2019-03-06T07:39:29.247Z,17.97
2019-03-06T07:42:35.986Z,8.47
2019-03-06T07:46:05.739Z,15.50
2019-03-06T07:48:48.165Z,11.40
2019-03-06T07:51:35.455Z,16.20
2019-03-06T07:54:30.810Z,15.00
2019-03-06T07:57:14.240Z,21.43
2019-03-06T07:59:44.193Z,44.13
2019-03-06T08:02:19.384Z,50.10
2019-03-06T08:04:53.610Z,31.77
2019-03-06T08:07:23.413Z,21.97
2019-03-06T08:09:53.284Z,20.17
2019-03-06T08:12:31.613Z,16.03
2019-03-06T08:15:32.264Z,13.33
2019-03-06T08:18:19.540Z,16.77
2019-03-06T08:21:06.651Z,15.00
2019-03-06T08:24:00.980Z,14.97
2019-03-06T08:26:30.763Z,11.17
2019-03-06T08:29:00.538Z,8.33
2019-03-06T08:31:49.010Z,7.63
2019-03-06T08:34:18.671Z,7.87
2019-03-06T08:36:48.469Z,8.30
2019-03-06T08:39:23.011Z,8.70
2019-03-06T08:41:52.860Z,8.43
2019-03-06T08:44:22.455Z,8.43
2019-03-06T08:47:23.168Z,7.60
2019-03-06T08:50:01.716Z,8.40
2019-03-06T08:52:53.060Z,7.37
2019-03-06T08:55:44.402Z,7.40
2019-03-06T08:58:42.409Z,7.77
2019-03-06T09:01:43.477Z,8.20
2019-03-06T09:04:32.091Z,8.30
2019-03-06T09:07:19.889Z,8.83
2019-03-06T09:10:14.278Z,10.77
2019-03-06T09:13:05.444Z,11.43
2019-03-06T09:16:00.294Z,12.53
2019-03-06T09:18:48.997Z,22.13
2019-03-06T09:21:40.293Z,22.97
2019-03-06T09:24:35.096Z,22.73
2019-03-06T09:27:12.070Z,22.53
2019-03-06T09:29:57.375Z,23.27
2019-03-06T09:32:41.330Z,18.37
2019-03-06T09:35:29.383Z,17.10
2019-03-06T09:38:19.514Z,15.77
2019-03-06T09:41:26.160Z,16.53
2019-03-06T09:44:23.800Z,15.03
2019-03-06T09:47:15.358Z,13.23
2019-03-06T09:50:06.924Z,13.30
2019-03-06T09:52:57.148Z,10.77
2019-03-06T09:55:40.588Z,10.40
2019-03-06T09:58:31.902Z,10.17
2019-03-06T10:01:19.122Z,9.30
2019-03-06T10:04:07.702Z,9.93
2019-03-06T10:06:59.021Z,9.83
2019-03-06T10:09:37.137Z,11.10
2019-03-06T10:12:15.239Z,10.83
2019-03-06T10:15:01.835Z,12.77
2019-03-06T10:17:36.229Z,13.50
2019-03-06T10:20:09.452Z,16.90
2019-03-06T10:22:39.317Z,16.27
2019-03-06T10:25:09.077Z,15.40
2019-03-06T10:27:38.778Z,12.10
2019-03-06T10:30:12.131Z,10.33
2019-03-06T10:32:41.995Z,8.30
2019-03-06T10:35:12.927Z,8.10
2019-03-06T10:37:42.490Z,10.03
2019-03-06T10:40:15.197Z,13.83
2019-03-06T10:42:44.900Z,7.60
2019-03-06T10:45:15.692Z,10.37
2019-03-06T10:47:45.844Z,5.17
2019-03-06T10:50:26.022Z,3.40
2019-03-06T10:52:49.052Z,4.00
2019-03-06T10:55:19.254Z,3.20
2019-03-06T10:57:49.164Z,3.17
2019-03-06T11:00:26.963Z,3.13
2019-03-06T11:02:57.103Z,3.27
2019-03-06T11:05:31.631Z,3.17
2019-03-06T11:08:02.090Z,3.10
2019-03-06T11:10:39.538Z,3.00
2019-03-06T11:13:11.764Z,3.43
2019-03-06T11:15:42.006Z,3.07
2019-03-06T11:18:11.943Z,3.33
2019-03-06T11:20:42.005Z,3.53
2019-03-06T11:23:12.085Z,3.00
2019-03-06T11:25:42.077Z,2.90
2019-03-06T11:28:12.658Z,3.17
2019-03-06T11:30:46.507Z,2.77
2019-03-06T11:33:17.474Z,2.90
2019-03-06T11:35:47.505Z,3.10
2019-03-06T11:38:17.771Z,3.10
2019-03-06T11:40:47.484Z,3.20
2019-03-06T11:43:17.222Z,3.00
2019-03-06T11:45:47.343Z,3.60
2019-03-06T11:48:17.189Z,3.23
2019-03-06T11:50:47.386Z,2.93
2019-03-06T11:53:16.964Z,3.03
2019-03-06T11:55:46.822Z,3.60
2019-03-06T11:58:18.831Z,3.10
2019-03-06T12:00:48.843Z,3.20
2019-03-06T12:03:20.876Z,3.17
2019-03-06T12:05:51.031Z,2.37
2019-03-06T12:08:21.375Z,2.87
2019-03-06T12:10:52.353Z,3.00
2019-03-06T12:13:22.197Z,3.00
2019-03-06T12:15:52.452Z,3.50
2019-03-06T12:18:24.599Z,3.07
2019-03-06T12:20:55.445Z,3.33
2019-03-06T12:23:25.275Z,3.43
2019-03-06T12:25:54.985Z,3.50
2019-03-06T12:28:24.632Z,3.40
2019-03-06T12:30:54.347Z,3.20
2019-03-06T12:33:26.217Z,3.20
2019-03-06T12:35:55.810Z,2.97
2019-03-06T12:38:25.517Z,4.87
2019-03-06T12:40:55.304Z,3.80
2019-03-06T12:43:25.168Z,3.70
2019-03-06T12:46:23.835Z,3.37
2019-03-06T12:49:14.509Z,2.70
2019-03-06T12:51:44.203Z,3.17
2019-03-06T12:54:13.941Z,3.07
2019-03-06T12:56:43.548Z,3.37
2019-03-06T12:59:13.149Z,2.90
2019-03-06T13:01:42.833Z,3.60
2019-03-06T13:04:12.424Z,3.17
2019-03-06T13:06:42.076Z,3.13
2019-03-06T13:09:18.283Z,2.60
2019-03-06T13:11:48.375Z,2.57
2019-03-06T13:14:18.193Z,2.97
2019-03-06T13:16:47.843Z,2.40
2019-03-06T13:19:17.558Z,2.40
2019-03-06T13:21:47.176Z,2.50
2019-03-06T13:24:17.232Z,2.50
2019-03-06T13:26:47.188Z,2.57
2019-03-06T13:29:17.052Z,2.17
2019-03-06T13:31:46.729Z,2.57
2019-03-06T13:34:23.055Z,2.50
2019-03-06T13:36:52.702Z,2.50
2019-03-06T13:39:22.317Z,2.63
2019-03-06T13:41:52.110Z,2.60
2019-03-06T13:44:21.874Z,3.27
2019-03-06T13:46:51.477Z,5.03
2019-03-06T13:49:21.149Z,3.27
2019-03-06T13:51:50.933Z,2.80
2019-03-06T13:54:20.721Z,2.63
2019-03-06T13:56:51.844Z,2.30
2019-03-06T13:59:21.624Z,2.37
2019-03-06T14:01:51.276Z,6.53
2019-03-06T14:04:20.913Z,2.63
2019-03-06T14:06:50.611Z,3.50
2019-03-06T14:09:20.337Z,2.33
2019-03-06T14:11:50.319Z,5.83
2019-03-06T14:14:20.063Z,3.17
2019-03-06T14:16:49.667Z,5.90
2019-03-06T14:19:19.281Z,7.10
2019-03-06T14:21:49.081Z,5.13
2019-03-06T14:24:17.715Z,3.13
2019-03-06T14:26:47.450Z,3.20
2019-03-06T14:29:18.511Z,5.40
2019-03-06T14:31:48.271Z,7.70
2019-03-06T14:34:18.019Z,3.13
2019-03-06T14:36:47.604Z,4.17
2019-03-06T14:39:29.200Z,4.20
2019-03-06T14:41:59.664Z,6.40
2019-03-06T14:44:29.432Z,6.77
2019-03-06T14:46:59.130Z,10.20
2019-03-06T14:49:30.402Z,8.50
2019-03-06T14:52:07.312Z,2.30
2019-03-06T14:54:31.993Z,2.10
2019-03-06T14:57:01.711Z,2.20
2019-03-06T14:59:31.378Z,7.67
2019-03-06T15:02:01.124Z,11.43
2019-03-06T15:04:31.042Z,11.73
2019-03-06T15:07:00.811Z,3.50
2019-03-06T15:09:30.885Z,2.03
2019-03-06T15:12:00.472Z,2.03
2019-03-06T15:14:36.175Z,1.90
2019-03-06T15:17:01.569Z,2.33
2019-03-06T15:19:31.289Z,2.20
2019-03-06T15:22:02.305Z,2.13
2019-03-06T15:24:40.719Z,2.80
2019-03-06T15:27:03.449Z,2.30
2019-03-06T15:29:33.356Z,2.23
2019-03-06T15:32:02.993Z,2.30
2019-03-06T15:34:32.676Z,2.40
2019-03-06T15:37:02.286Z,2.27
2019-03-06T15:39:46.714Z,3.23
2019-03-06T15:42:09.924Z,10.37
2019-03-06T15:44:39.784Z,27.47
2019-03-06T15:47:09.689Z,33.37
2019-03-06T15:49:39.343Z,16.30
2019-03-06T15:52:11.052Z,7.77
2019-03-06T15:54:40.848Z,3.40
2019-03-06T15:57:10.730Z,6.67
2019-03-06T15:59:40.685Z,4.10
2019-03-06T16:02:10.564Z,6.63
2019-03-06T16:04:40.302Z,3.50
2019-03-06T16:07:10.067Z,4.10
2019-03-06T16:09:39.995Z,4.40
2019-03-06T16:12:12.116Z,4.83
2019-03-06T16:14:41.483Z,5.00
2019-03-06T16:17:11.248Z,5.30
2019-03-06T16:19:40.943Z,3.97
2019-03-06T16:22:10.968Z,4.30
2019-03-06T16:24:40.720Z,4.13
2019-03-06T16:27:10.380Z,3.83
2019-03-06T16:29:39.962Z,4.60
2019-03-06T16:32:09.676Z,4.53
2019-03-06T16:34:39.465Z,3.13
2019-03-06T16:37:09.219Z,3.10
2019-03-06T16:39:38.847Z,3.17
2019-03-06T16:42:08.537Z,3.23
2019-03-06T16:44:38.336Z,3.03
2019-03-06T16:47:08.119Z,2.60
2019-03-06T16:49:38.171Z,2.40
2019-03-06T16:52:08.047Z,3.20
2019-03-06T16:54:37.840Z,2.80
2019-03-06T16:57:07.652Z,3.17
2019-03-06T16:59:37.608Z,3.10
2019-03-06T17:02:07.741Z,2.90
2019-03-06T17:04:37.520Z,2.47
2019-03-06T17:07:07.437Z,3.27
2019-03-06T17:09:37.162Z,2.80
2019-03-06T17:12:07.102Z,2.20
2019-03-06T17:14:36.836Z,3.00
2019-03-06T17:17:06.683Z,2.90
2019-03-06T17:19:36.363Z,2.20
2019-03-06T17:22:06.037Z,19.43
2019-03-06T17:24:35.698Z,3.87
2019-03-06T17:27:05.549Z,7.30
2019-03-06T17:29:35.206Z,6.43
2019-03-06T17:32:05.175Z,6.60
2019-03-06T17:34:34.980Z,9.90
2019-03-06T17:37:05.067Z,12.73
2019-03-06T17:39:34.711Z,15.87
2019-03-06T17:42:04.499Z,15.90
2019-03-06T17:44:34.319Z,15.03
2019-03-06T17:47:04.241Z,12.90
2019-03-06T17:49:35.003Z,13.70
2019-03-06T17:52:04.917Z,92.67
2019-03-06T17:54:34.690Z,13.43
2019-03-06T17:57:04.375Z,12.80
2019-03-06T17:59:34.146Z,13.50
2019-03-06T18:02:04.116Z,12.37
2019-03-06T18:04:34.398Z,14.40
2019-03-06T18:07:06.070Z,26.33
2019-03-06T18:09:35.941Z,16.10
2019-03-06T18:12:05.971Z,11.63
2019-03-06T18:14:35.653Z,7.83
2019-03-06T18:17:05.355Z,6.17
2019-03-06T18:19:35.090Z,8.20
2019-03-06T18:22:04.947Z,10.10
2019-03-06T18:24:34.654Z,7.17
2019-03-06T18:27:04.733Z,6.23
2019-03-06T18:29:34.652Z,7.83
2019-03-06T18:32:04.324Z,7.33
2019-03-06T18:34:33.965Z,7.60
2019-03-06T18:37:03.549Z,8.30
2019-03-06T18:39:33.362Z,7.00
2019-03-06T18:42:03.817Z,6.67
2019-03-06T18:44:33.413Z,6.17
2019-03-06T18:47:03.144Z,5.47
2019-03-06T18:49:32.793Z,6.13
2019-03-06T18:52:02.534Z,7.53
2019-03-06T18:54:32.559Z,7.17
2019-03-06T18:57:02.258Z,8.07
2019-03-06T18:59:31.871Z,8.70
2019-03-06T19:02:01.546Z,7.87
2019-03-06T19:04:31.265Z,6.37
2019-03-06T19:07:00.908Z,6.90
2019-03-06T19:09:30.654Z,6.00
2019-03-06T19:12:00.263Z,4.60
2019-03-06T19:14:29.982Z,4.13
2019-03-06T19:16:59.662Z,4.17
2019-03-06T19:19:29.536Z,3.73
2019-03-06T19:21:59.217Z,4.20
2019-03-06T19:24:28.941Z,5.07
2019-03-06T19:26:58.558Z,6.00
2019-03-06T19:29:28.266Z,4.67
2019-03-06T19:31:57.964Z,3.63
2019-03-06T19:34:27.731Z,3.57
2019-03-06T19:36:57.453Z,3.37
2019-03-06T19:39:27.038Z,3.20
2019-03-06T19:41:56.745Z,4.70
2019-03-06T19:44:26.402Z,6.20
2019-03-06T19:46:56.050Z,6.40
2019-03-06T19:49:25.628Z,5.77
2019-03-06T19:51:55.680Z,5.60
2019-03-06T19:54:25.346Z,5.90
2019-03-06T19:56:55.123Z,7.00
2019-03-06T19:59:24.780Z,8.97
2019-03-06T20:01:54.506Z,6.20
2019-03-06T20:04:25.684Z,6.07
2019-03-06T20:06:55.841Z,5.93
2019-03-06T20:09:28.354Z,5.70
2019-03-06T20:11:58.352Z,4.10
2019-03-06T20:14:28.307Z,3.30
2019-03-06T20:16:58.110Z,3.47
2019-03-06T20:19:28.253Z,3.40
2019-03-06T20:21:58.113Z,2.87
2019-03-06T20:24:28.520Z,3.00
2019-03-06T20:26:58.315Z,3.67
2019-03-06T20:29:28.090Z,3.50
2019-03-06T20:31:57.902Z,3.40
2019-03-06T20:34:27.524Z,3.10
2019-03-06T20:36:57.197Z,3.50
2019-03-06T20:39:26.799Z,4.63
2019-03-06T20:41:56.509Z,4.43
2019-03-06T20:44:26.274Z,4.43
2019-03-06T20:46:55.948Z,3.60
2019-03-06T20:49:25.555Z,4.33
2019-03-06T20:51:55.205Z,4.17
2019-03-06T20:54:24.883Z,3.20
2019-03-06T20:56:54.616Z,3.30
2019-03-06T20:59:24.340Z,3.77
2019-03-06T21:01:54.037Z,4.17
2019-03-06T21:04:23.675Z,4.40
2019-03-06T21:06:53.275Z,3.13
2019-03-06T21:09:23.088Z,3.60
2019-03-06T21:11:52.865Z,3.83
2019-03-06T21:14:22.527Z,4.93
2019-03-06T21:16:52.462Z,4.30
2019-03-06T21:19:22.237Z,3.97
2019-03-06T21:21:51.987Z,4.80
2019-03-06T21:24:21.815Z,4.27
2019-03-06T21:26:51.597Z,4.23
2019-03-06T21:29:21.329Z,3.73
2019-03-06T21:31:51.145Z,3.33
2019-03-06T21:34:20.941Z,3.77
2019-03-06T21:36:50.571Z,4.07
2019-03-06T21:39:29.820Z,3.20
2019-03-06T21:41:59.569Z,3.40
2019-03-06T21:44:29.662Z,3.20
2019-03-06T21:46:59.324Z,2.77
2019-03-06T21:49:29.114Z,3.30
2019-03-06T21:51:58.889Z,3.33
2019-03-06T21:54:28.622Z,2.77
2019-03-06T21:56:58.225Z,3.00
2019-03-06T21:59:27.861Z,2.90
2019-03-06T22:01:57.544Z,3.27
2019-03-06T22:04:27.219Z,2.83
2019-03-06T22:06:57.155Z,2.80
2019-03-06T22:09:26.837Z,3.10
2019-03-06T22:11:56.466Z,2.73
2019-03-06T22:14:26.334Z,3.20
2019-03-06T22:16:56.105Z,3.77
2019-03-06T22:19:26.650Z,3.80
2019-03-06T22:21:56.476Z,4.77
2019-03-06T22:24:26.168Z,5.27
2019-03-06T22:26:55.971Z,5.03
2019-03-06T22:29:25.612Z,5.07
2019-03-06T22:31:55.273Z,4.90
2019-03-06T22:34:25.238Z,4.47
2019-03-06T22:36:54.869Z,4.70
2019-03-06T22:39:24.604Z,4.87
2019-03-06T22:41:54.245Z,4.93
2019-03-06T22:44:23.977Z,4.50
2019-03-06T22:46:53.636Z,4.63
2019-03-06T22:49:23.512Z,3.70
2019-03-06T22:51:53.283Z,3.50
2019-03-06T22:54:23.142Z,2.80
2019-03-06T22:56:52.881Z,2.93
2019-03-06T22:59:22.559Z,3.00
2019-03-06T23:01:53.327Z,2.67
2019-03-06T23:04:23.141Z,2.77
2019-03-06T23:06:52.841Z,3.07
2019-03-06T23:09:22.588Z,3.93
2019-03-06T23:11:52.393Z,8.60
2019-03-06T23:14:22.033Z,9.87
2019-03-06T23:16:52.114Z,10.40
2019-03-06T23:19:21.814Z,14.47
2019-03-06T23:21:51.477Z,13.43
2019-03-06T23:24:21.087Z,16.00
2019-03-06T23:26:50.851Z,18.17
2019-03-06T23:29:20.798Z,19.23
2019-03-06T23:31:50.658Z,17.07
2019-03-06T23:34:20.387Z,17.00
2019-03-06T23:36:50.068Z,14.60
2019-03-06T23:39:19.713Z,14.90
2019-03-06T23:41:49.524Z,13.07
2019-03-06T23:44:19.388Z,13.30
2019-03-06T23:46:49.181Z,12.80
2019-03-06T23:49:18.937Z,12.20
2019-03-06T23:51:57.687Z,13.50
2019-03-06T23:54:27.291Z,11.83
2019-03-06T23:56:57.187Z,11.83
2019-03-06T23:59:26.928Z,10.70
